KEAU/EAU METAR and TAF weather

Enter ICAO airport designator
Station Type Date Time Source
KEAU METAR 2021/09/24 02:56 UTC NOAA

KEAU 240256Z AUTO 24003KT 10SM CLR 12/10 A2994 RMK AO2 SLP140 T01170100 56002


Station Type Date Time Source
KEAU Decoded METAR 2021/09/24 02:56 UTC NOAA

EAU CLAIRE CHIPPEWA VALLEY, WI, United States (KEAU) 44-52N 091-29W
Sep 23, 2021 - 10:56 PM EDT / 2021.09.24 0256 UTC
Wind: from the WSW (240 degrees) at 3 MPH (3 KT):0
Visibility: 10 mile(s):0
Sky conditions: clear
Temperature: 53.1 F (11.7 C)
Dew Point: 50.0 F (10.0 C)
Relative Humidity: 89%
Pressure (altimeter): 29.94 in. Hg (1013 hPa)
Pressure tendency: 0.01 inches (0.2 hPa) lower than three hours ago
ob: KEAU 240256Z AUTO 24003KT 10SM CLR 12/10 A2994 RMK AO2 SLP140 T01170100 56002
cycle: 3

Station Type Date Time Source
KEAU TAF 2021/09/23 18:22 UTC NOAA

TAF KEAU 231720Z 2318/2418 30006KT P6SM SKC
FM240000 00000KT P6SM SKC
FM241300 27006KT P6SM BKN200

Example: see airport list